Lammy — PBRE — position and weather

sailwx.info

Track history (hours):
 
Tides and Currents Weather Stations Pressure Air Temp Water Temp Dewpoint Dewpoint Depression Visibility Wind Speed Wind Dir Waves Ship Positions

Lammy

Last reported at 2016-Apr-23 12:31 UTC. Time now 2016-Apr-29 12:02 UTC.
Position N 55°37' E 015°23'.

Length 95 m; draft 4.1 m.

Type: Cargo ship. MMSI: 245391000.

Date/timePositionNaut miles runAvg speedWind from/ knotsBaromVisibWave heightAir tempDewpointWater temp
2016-Apr-23 12:31N 55°37' E 015°23'1111.7
2016-Apr-23 11:33N 55°31' E 015°07'1211.7
2016-Apr-23 10:33N 55°26' E 014°49'1211.6
2016-Apr-23 09:33N 55°18' E 014°33'1111.3
2016-Apr-23 08:33N 55°12' E 014°17'1111.5
2016-Apr-23 07:34N 55°11' E 013°57'1211.7
2016-Apr-23 06:34N 55°12' E 013°37'1211.8
2016-Apr-23 05:34N 55°14' E 013°16'1211.8
2016-Apr-23 04:34N 55°15' E 012°55'1111.1
2016-Apr-23 03:33N 55°20' E 012°38'1211.6
2016-Apr-23 02:33N 55°32' E 012°42'1212.3
2016-Apr-23 01:34N 55°44' E 012°41'1312.7
2016-Apr-23 00:34N 55°57' E 012°38'1211.8
2016-Apr-22 23:34N 56°07' E 012°30'2412.2
2016-Apr-22 21:33N 56°30' E 012°16'1212.3
2016-Apr-22 20:33N 56°42' E 012°10'1212.5
2016-Apr-22 19:34N 56°54' E 012°04'1312.6
2016-Apr-22 18:33N 57°06' E 011°57'1312.8
2016-Apr-22 17:32N 57°19' E 011°48'1312.8
2016-Apr-22 16:34N 57°30' E 011°40'1010.4
2016-Apr-22 15:33N 57°40' E 011°47'1 0.6
2016-Apr-22 14:33N 57°40' E 011°48'0 0.0
2016-Apr-22 13:33N 57°40' E 011°48'0 0.0
2016-Apr-22 12:34N 57°40' E 011°48'0 0.2
2016-Apr-22 11:33N 57°40' E 011°48'10 9.9
2016-Apr-22 10:34N 57°38' E 011°30'1212.2
2016-Apr-22 09:33N 57°42' E 011°08'32211.5
2016-Apr-21 05:33N 55°10' E 002°34'1212.4
2016-Apr-21 04:34N 55°01' E 002°20'1212.2
2016-Apr-21 03:33N 54°51' E 002°06'1312.1
2016-Apr-21 02:26N 54°41' E 001°51'1112.1
2016-Apr-21 01:34N 54°33' E 001°39'1312.3
2016-Apr-21 00:29N 54°23' E 001°25'1212.5
2016-Apr-20 23:34N 54°14' E 001°12'1212.4
2016-Apr-20 22:33N 54°04' E 000°59'1312.8
2016-Apr-20 21:33N 53°54' E 000°45'1313.2
2016-Apr-20 20:33N 53°44' E 000°30'1413.6
2016-Apr-20 19:33N 53°34' E 000°16'1312.7
2016-Apr-20 18:34N 53°37' W 000°05'1111.2
2016-Apr-20 17:33N 53°43' W 000°20'1 1.1
2016-Apr-20 16:33N 53°42' W 000°22'0 0.0
2016-Apr-20 15:34N 53°42' W 000°22'0 0.0
2016-Apr-20 14:33N 53°42' W 000°22'0 0.0
2016-Apr-20 13:34N 53°42' W 000°22'0 0.0
2016-Apr-20 12:34N 53°42' W 000°22'0 0.0
2016-Apr-20 11:33N 53°42' W 000°22'0 0.0
2016-Apr-20 10:33N 53°42' W 000°22'0 0.0
2016-Apr-20 09:33N 53°42' W 000°22'0 0.0
2016-Apr-20 08:33N 53°42' W 000°22'0 0.0
2016-Apr-20 07:33N 53°42' W 000°22'0 0.0
2016-Apr-20 06:33N 53°42' W 000°22'0 0.0
2016-Apr-20 05:33N 53°42' W 000°22'0 0.5
2016-Apr-20 04:33N 53°43' W 000°22'4 3.6
2016-Apr-20 03:34N 53°44' W 000°16'0 0.4
2016-Apr-20 02:34N 53°45' W 000°16'0 0.0
2016-Apr-20 01:33N 53°45' W 000°16'0 0.0
2016-Apr-20 00:33N 53°45' W 000°16'0 0.0
2016-Apr-19 23:34N 53°45' W 000°16'0 0.0
2016-Apr-19 22:33N 53°45' W 000°16'0 0.0
2016-Apr-19 21:33N 53°45' W 000°16'0 0.0
2016-Apr-19 20:33N 53°45' W 000°16'0 0.0
2016-Apr-19 19:33N 53°45' W 000°16'0 0.0
2016-Apr-19 18:33N 53°45' W 000°16'0 0.0
2016-Apr-19 17:34N 53°45' W 000°16'0 0.0
2016-Apr-19 16:33N 53°45' W 000°16'0 0.0
2016-Apr-19 15:33N 53°45' W 000°16'0 0.0
2016-Apr-19 14:33N 53°45' W 000°16'0 0.0
2016-Apr-19 13:33N 53°45' W 000°16'0 0.0
2016-Apr-19 12:33N 53°45' W 000°16'0 0.0
2016-Apr-19 11:33N 53°45' W 000°16'0 0.0
2016-Apr-19 10:33N 53°45' W 000°16'0 0.0
2016-Apr-19 09:33N 53°45' W 000°16'0 0.0
2016-Apr-19 08:33N 53°45' W 000°16'0 0.0
2016-Apr-19 07:34N 53°45' W 000°16'0 0.0
2016-Apr-19 06:34N 53°45' W 000°16'0 0.0
2016-Apr-19 05:33N 53°45' W 000°16'0 0.0
2016-Apr-19 04:33N 53°45' W 000°16'0 0.0
2016-Apr-19 03:33N 53°45' W 000°16'0 0.0
2016-Apr-19 02:34N 53°45' W 000°16'0 0.0
2016-Apr-19 01:33N 53°45' W 000°16'0 0.0
2016-Apr-19 00:34N 53°45' W 000°16'0 0.0
2016-Apr-18 23:33N 53°45' W 000°16'0 0.0
2016-Apr-18 22:34N 53°45' W 000°16'0 0.0
2016-Apr-18 21:34N 53°45' W 000°16'0 0.0
2016-Apr-18 20:33N 53°45' W 000°16'0 0.0
2016-Apr-18 19:33N 53°45' W 000°16'0 0.0
2016-Apr-18 18:34N 53°45' W 000°16'0 0.0
2016-Apr-18 17:34N 53°45' W 000°16'0 0.0
2016-Apr-18 16:33N 53°45' W 000°16'0 0.0
2016-Apr-18 15:33N 53°45' W 000°16'0 0.0
2016-Apr-18 14:34N 53°45' W 000°16'0 0.0
2016-Apr-18 13:34N 53°45' W 000°16'0 0.0
2016-Apr-18 12:33N 53°45' W 000°16'0 0.0
2016-Apr-18 11:34N 53°45' W 000°16'0 0.0
2016-Apr-18 10:33N 53°45' W 000°16'0 0.0
2016-Apr-18 09:33N 53°45' W 000°16'0 0.0
2016-Apr-18 08:33N 53°45' W 000°16'0 0.0
2016-Apr-18 07:34N 53°45' W 000°16'0 0.0
2016-Apr-18 06:34N 53°45' W 000°16'0 0.4
2016-Apr-18 05:33N 53°44' W 000°16'3 2.6
2016-Apr-18 04:34N 53°42' W 000°14'8 7.8
2016-Apr-18 03:33N 53°37' W 000°05'1110.7
2016-Apr-18 02:33N 53°33' E 000°13'9 9.2
2016-Apr-18 01:32N 53°40' E 000°23'42410.2
2016-Apr-16 08:10N 57°46' E 010°36'5 7.1
2016-Apr-16 07:27N 57°44' E 010°44'4 3.3
2016-Apr-16 06:05N 57°43' E 010°36'3 5.4
2016-Apr-16 05:31N 57°42' E 010°41'9 9.1
2016-Apr-16 04:33N 57°38' E 010°56'1010.2
2016-Apr-16 03:33N 57°33' E 011°13'1111.1
2016-Apr-16 02:33N 57°25' E 011°27'1211.8
2016-Apr-16 01:32N 57°14' E 011°35'2010.2
2016-Apr-15 23:33N 56°56' E 011°51'1010.0
2016-Apr-15 22:33N 56°47' E 011°60'3210.8
2016-Apr-15 19:33N 56°17' E 012°24'1211.9
2016-Apr-15 18:33N 56°07' E 012°33'1211.6
2016-Apr-15 17:34N 55°57' E 012°43'1010.4
2016-Apr-15 16:33N 55°46' E 012°42'1111.2
2016-Apr-15 15:33N 55°35' E 012°42'1211.8
2016-Apr-15 14:33N 55°23' E 012°41'1310.1
2016-Apr-15 13:17N 55°15' E 012°59'912.4
2016-Apr-15 12:33N 55°15' E 013°15'1212.3
2016-Apr-15 11:34N 55°14' E 013°36'1212.4
2016-Apr-15 10:33N 55°14' E 013°58'1211.9
2016-Apr-15 09:33N 55°16' E 014°19'1212.2
2016-Apr-15 08:33N 55°25' E 014°33'1212.2
2016-Apr-15 07:33N 55°32' E 014°51'1211.9
2016-Apr-15 06:31N 55°38' E 015°10'1212.1
2016-Apr-15 05:33N 55°44' E 015°28'1212.3
2016-Apr-15 04:33N 55°50' E 015°47'  
Track history (hours):
 
Tides and Currents Weather Stations Pressure Air Temp Water Temp Dewpoint Dewpoint Depression Visibility Wind Speed Wind Dir Waves Ship Positions

Lammy

Last reported at 2016-Apr-23 12:31 UTC. Time now 2016-Apr-29 12:02 UTC.
Position N 55°37' E 015°23'.

Length 95 m; draft 4.1 m.

Type: Cargo ship. MMSI: 245391000.

Date/timePositionNaut miles runAvg speedWind from/ knotsBaromVisibWave heightAir tempDewpointWater temp
2016-Apr-23 12:31N 55°37' E 015°23'1111.7
2016-Apr-23 11:33N 55°31' E 015°07'1211.7
2016-Apr-23 10:33N 55°26' E 014°49'1211.6
2016-Apr-23 09:33N 55°18' E 014°33'1111.3
2016-Apr-23 08:33N 55°12' E 014°17'1111.5
2016-Apr-23 07:34N 55°11' E 013°57'1211.7
2016-Apr-23 06:34N 55°12' E 013°37'1211.8
2016-Apr-23 05:34N 55°14' E 013°16'1211.8
2016-Apr-23 04:34N 55°15' E 012°55'1111.1
2016-Apr-23 03:33N 55°20' E 012°38'1211.6
2016-Apr-23 02:33N 55°32' E 012°42'1212.3
2016-Apr-23 01:34N 55°44' E 012°41'1312.7
2016-Apr-23 00:34N 55°57' E 012°38'1211.8
2016-Apr-22 23:34N 56°07' E 012°30'2412.2
2016-Apr-22 21:33N 56°30' E 012°16'1212.3
2016-Apr-22 20:33N 56°42' E 012°10'1212.5
2016-Apr-22 19:34N 56°54' E 012°04'1312.6
2016-Apr-22 18:33N 57°06' E 011°57'1312.8
2016-Apr-22 17:32N 57°19' E 011°48'1312.8
2016-Apr-22 16:34N 57°30' E 011°40'1010.4
2016-Apr-22 15:33N 57°40' E 011°47'1 0.6
2016-Apr-22 14:33N 57°40' E 011°48'0 0.0
2016-Apr-22 13:33N 57°40' E 011°48'0 0.0
2016-Apr-22 12:34N 57°40' E 011°48'0 0.2
2016-Apr-22 11:33N 57°40' E 011°48'10 9.9
2016-Apr-22 10:34N 57°38' E 011°30'1212.2
2016-Apr-22 09:33N 57°42' E 011°08'32211.5
2016-Apr-21 05:33N 55°10' E 002°34'1212.4
2016-Apr-21 04:34N 55°01' E 002°20'1212.2
2016-Apr-21 03:33N 54°51' E 002°06'1312.1
2016-Apr-21 02:26N 54°41' E 001°51'1112.1
2016-Apr-21 01:34N 54°33' E 001°39'1312.3
2016-Apr-21 00:29N 54°23' E 001°25'1212.5
2016-Apr-20 23:34N 54°14' E 001°12'1212.4
2016-Apr-20 22:33N 54°04' E 000°59'1312.8
2016-Apr-20 21:33N 53°54' E 000°45'1313.2
2016-Apr-20 20:33N 53°44' E 000°30'1413.6
2016-Apr-20 19:33N 53°34' E 000°16'1312.7
2016-Apr-20 18:34N 53°37' W 000°05'1111.2
2016-Apr-20 17:33N 53°43' W 000°20'1 1.1
2016-Apr-20 16:33N 53°42' W 000°22'0 0.0
2016-Apr-20 15:34N 53°42' W 000°22'0 0.0
2016-Apr-20 14:33N 53°42' W 000°22'0 0.0
2016-Apr-20 13:34N 53°42' W 000°22'0 0.0
2016-Apr-20 12:34N 53°42' W 000°22'0 0.0
2016-Apr-20 11:33N 53°42' W 000°22'0 0.0
2016-Apr-20 10:33N 53°42' W 000°22'0 0.0
2016-Apr-20 09:33N 53°42' W 000°22'0 0.0
2016-Apr-20 08:33N 53°42' W 000°22'0 0.0
2016-Apr-20 07:33N 53°42' W 000°22'0 0.0
2016-Apr-20 06:33N 53°42' W 000°22'0 0.0
2016-Apr-20 05:33N 53°42' W 000°22'0 0.5
2016-Apr-20 04:33N 53°43' W 000°22'4 3.6
2016-Apr-20 03:34N 53°44' W 000°16'0 0.4
2016-Apr-20 02:34N 53°45' W 000°16'0 0.0
2016-Apr-20 01:33N 53°45' W 000°16'0 0.0
2016-Apr-20 00:33N 53°45' W 000°16'0 0.0
2016-Apr-19 23:34N 53°45' W 000°16'0 0.0
2016-Apr-19 22:33N 53°45' W 000°16'0 0.0
2016-Apr-19 21:33N 53°45' W 000°16'0 0.0
2016-Apr-19 20:33N 53°45' W 000°16'0 0.0
2016-Apr-19 19:33N 53°45' W 000°16'0 0.0
2016-Apr-19 18:33N 53°45' W 000°16'0 0.0
2016-Apr-19 17:34N 53°45' W 000°16'0 0.0
2016-Apr-19 16:33N 53°45' W 000°16'0 0.0
2016-Apr-19 15:33N 53°45' W 000°16'0 0.0
2016-Apr-19 14:33N 53°45' W 000°16'0 0.0
2016-Apr-19 13:33N 53°45' W 000°16'0 0.0
2016-Apr-19 12:33N 53°45' W 000°16'0 0.0
2016-Apr-19 11:33N 53°45' W 000°16'0 0.0
2016-Apr-19 10:33N 53°45' W 000°16'0 0.0
2016-Apr-19 09:33N 53°45' W 000°16'0 0.0
2016-Apr-19 08:33N 53°45' W 000°16'0 0.0
2016-Apr-19 07:34N 53°45' W 000°16'0 0.0
2016-Apr-19 06:34N 53°45' W 000°16'0 0.0
2016-Apr-19 05:33N 53°45' W 000°16'0 0.0
2016-Apr-19 04:33N 53°45' W 000°16'0 0.0
2016-Apr-19 03:33N 53°45' W 000°16'0 0.0
2016-Apr-19 02:34N 53°45' W 000°16'0 0.0
2016-Apr-19 01:33N 53°45' W 000°16'0 0.0
2016-Apr-19 00:34N 53°45' W 000°16'0 0.0
2016-Apr-18 23:33N 53°45' W 000°16'0 0.0
2016-Apr-18 22:34N 53°45' W 000°16'0 0.0
2016-Apr-18 21:34N 53°45' W 000°16'0 0.0
2016-Apr-18 20:33N 53°45' W 000°16'0 0.0
2016-Apr-18 19:33N 53°45' W 000°16'0 0.0
2016-Apr-18 18:34N 53°45' W 000°16'0 0.0
2016-Apr-18 17:34N 53°45' W 000°16'0 0.0
2016-Apr-18 16:33N 53°45' W 000°16'0 0.0
2016-Apr-18 15:33N 53°45' W 000°16'0 0.0
2016-Apr-18 14:34N 53°45' W 000°16'0 0.0
2016-Apr-18 13:34N 53°45' W 000°16'0 0.0
2016-Apr-18 12:33N 53°45' W 000°16'0 0.0
2016-Apr-18 11:34N 53°45' W 000°16'0 0.0
2016-Apr-18 10:33N 53°45' W 000°16'0 0.0
2016-Apr-18 09:33N 53°45' W 000°16'0 0.0
2016-Apr-18 08:33N 53°45' W 000°16'0 0.0
2016-Apr-18 07:34N 53°45' W 000°16'0 0.0
2016-Apr-18 06:34N 53°45' W 000°16'0 0.4
2016-Apr-18 05:33N 53°44' W 000°16'3 2.6
2016-Apr-18 04:34N 53°42' W 000°14'8 7.8
2016-Apr-18 03:33N 53°37' W 000°05'1110.7
2016-Apr-18 02:33N 53°33' E 000°13'9 9.2
2016-Apr-18 01:32N 53°40' E 000°23'42410.2
2016-Apr-16 08:10N 57°46' E 010°36'5 7.1
2016-Apr-16 07:27N 57°44' E 010°44'4 3.3
2016-Apr-16 06:05N 57°43' E 010°36'3 5.4
2016-Apr-16 05:31N 57°42' E 010°41'9 9.1
2016-Apr-16 04:33N 57°38' E 010°56'1010.2
2016-Apr-16 03:33N 57°33' E 011°13'1111.1
2016-Apr-16 02:33N 57°25' E 011°27'1211.8
2016-Apr-16 01:32N 57°14' E 011°35'2010.2
2016-Apr-15 23:33N 56°56' E 011°51'1010.0
2016-Apr-15 22:33N 56°47' E 011°60'3210.8
2016-Apr-15 19:33N 56°17' E 012°24'1211.9
2016-Apr-15 18:33N 56°07' E 012°33'1211.6
2016-Apr-15 17:34N 55°57' E 012°43'1010.4
2016-Apr-15 16:33N 55°46' E 012°42'1111.2
2016-Apr-15 15:33N 55°35' E 012°42'1211.8
2016-Apr-15 14:33N 55°23' E 012°41'1310.1
2016-Apr-15 13:17N 55°15' E 012°59'912.4
2016-Apr-15 12:33N 55°15' E 013°15'1212.3
2016-Apr-15 11:34N 55°14' E 013°36'1212.4
2016-Apr-15 10:33N 55°14' E 013°58'1211.9
2016-Apr-15 09:33N 55°16' E 014°19'1212.2
2016-Apr-15 08:33N 55°25' E 014°33'1212.2
2016-Apr-15 07:33N 55°32' E 014°51'1211.9
2016-Apr-15 06:31N 55°38' E 015°10'1212.1
2016-Apr-15 05:33N 55°44' E 015°28'1212.3
2016-Apr-15 04:33N 55°50' E 015°47'  

Dump ship's entire track history